Station: Longreach  

  Atmospheric Gas Attenuation - ITU Rec 676-11   ----------------- dB/100km -----------------
Date Time Temp RH % AH g/m3 Dew Point Wind Direction Speed kph Gust kph Barometer mB Rainfall Since 9am 24GHz 47GHz 76GHz 122GHz 134GHz 241GHz
09/05 04:40 9.5 47 4.28 -1.2 15 15 1020.7 0 10.6 20.6 25.4 65.8 48.7 163.5
09/05 04:30 9.4 47 4.25 -1.3 13 15 1020.7 0 10.5 20.6 25.3 65.6 48.4 162.5
09/05 04:20 9.7 46 4.24 -1.3 13 17 1020.8 0 10.5 20.5 25.2 65.3 48.1 161.5
09/05 04:10 10 45 4.23 -1.4 15 17 1020.8 0 10.4 20.5 25.1 65.0 47.8 160.5
09/05 04:00 10.2 45 4.28 -1.2 17 20 1020.6 0 10.5 20.5 25.2 65.3 48.3 162.1
09/05 03:50 10.3 44 4.21 -1.4 17 20 1020.7 0 10.4 20.4 24.9 64.5 47.4 159.0
09/05 03:40 10.6 43 4.2 -1.4 15 17 1020.7 0 10.4 20.3 24.8 64.2 47.1 158.1
09/05 03:30 10.6 43 4.2 -1.4 17 24 1020.6 0 10.4 20.3 24.8 64.2 47.1 158.0
09/05 03:20 11 42 4.2 -1.4 17 20 1020.6 0 10.3 20.2 24.7 63.9 46.9 157.3
09/05 03:10 11.2 41 4.16 -1.5 19 22 1020.6 0 10.3 20.1 24.5 63.3 46.3 155.3
09/05 03:00 11.5 40 4.13 -1.6 19 26 1020.5 0 10.2 20.0 24.3 62.8 45.8 153.5
09/05 02:50 11.5 40 4.13 -1.6 19 22 1020.7 0 10.2 20.0 24.3 62.8 45.8 153.5
09/05 02:40 11.3 40 4.08 -1.8 20 24 1020.7 0 10.1 20.0 24.2 62.5 45.3 151.9
09/05 02:30 11.2 41 4.16 -1.5 17 28 1020.6 0 10.3 20.1 24.5 63.3 46.3 155.3
09/05 02:20 10.7 42 4.13 -1.7 15 17 1020.8 0 10.2 20.2 24.5 63.5 46.3 155.0
09/05 02:10 10.2 43 4.09 -1.8 15 15 1020.8 0 10.1 20.2 24.5 63.5 46.1 154.3
09/05 02:00 10.2 43 4.09 -1.8 15 15 1020.7 0 10.1 20.2 24.5 63.5 46.1 154.3
09/05 01:50 10 43 4.04 -2 15 15 1020.8 0 10.0 20.2 24.4 63.2 45.6 152.7
09/05 01:40 10.1 43 4.07 -1.9 13 13 1020.8 0 10.1 20.2 24.5 63.4 45.9 153.7
09/05 01:30 10.6 42 4.1 -1.8 13 15 1020.7 0 10.1 20.1 24.4 63.3 46.0 154.0
09/05 01:20 11 41 4.1 -1.7 15 15 1020.9 0 10.1 20.1 24.3 63.0 45.7 153.3
09/05 01:10 11.4 40 4.11 -1.7 15 15 1021 0 10.1 20.0 24.3 62.8 45.6 152.9
09/05 01:00 11.1 41 4.13 -1.6 11 13 1020.9 0 10.2 20.1 24.4 63.2 46.0 154.3
09/05 00:50 11.1 41 4.13 -1.6 11 13 1021 0 10.2 20.1 24.4 63.2 46.0 154.3
09/05 00:40 11.4 40 4.11 -1.7 11 13 1021 0 10.1 20.0 24.3 62.8 45.6 152.9
09/05 00:30 12.2 38 4.1 -1.7 11 13 1021.2 0 10.1 19.8 24.0 62.1 45.1 151.1
09/05 00:20 12.4 36 3.93 -2.2 9 11 1021.3 0 9.7 19.5 23.4 60.4 43.1 144.0
09/05 00:10 12.8 35 3.92 -2.3 13 13 1021.3 0 9.7 19.4 23.2 60.0 42.7 142.9
09/05 00:00 13.3 34 3.93 -2.2 11 13 1021.2 0 9.7 19.3 23.1 59.7 42.6 142.4
08/05 23:50 13.7 33 3.91 -2.3 13 15 1021.4 0 9.7 19.2 22.9 59.3 42.2 141.0
08/05 23:40 13.9 32 3.84 -2.5 13 15 1021.4 0 9.5 19.1 22.7 58.5 41.3 137.9
08/05 23:30 14 32 3.86 -2.4 13 17 1021.2 0 9.5 19.1 22.7 58.6 41.5 138.5
08/05 23:20 14.3 31 3.81 -2.6 15 17 1021.4 0 9.4 19.0 22.4 57.9 40.8 136.1
08/05 23:10 14.6 31 3.88 -2.3 15 17 1021.5 0 9.6 19.0 22.6 58.3 41.4 138.3
08/05 23:00 14.6 30 3.75 -2.8 15 19 1021.4 0 9.3 18.8 22.2 57.2 40.0 133.3
08/05 22:50 14.7 30 3.78 -2.7 15 17 1021.5 0 9.4 18.9 22.2 57.4 40.2 134.3
08/05 22:40 15.1 29 3.74 -2.8 15 19 1021.5 0 9.3 18.7 22.0 56.8 39.6 132.2
08/05 22:30 15.4 29 3.81 -2.5 17 22 1021.3 0 9.4 18.8 22.2 57.2 40.2 134.3
08/05 22:20 14.6 30 3.75 -2.8 15 19 1021.6 0 9.3 18.9 22.2 57.2 40.0 133.4
08/05 22:10 15.1 29 3.74 -2.8 15 17 1021.8 0 9.3 18.7 22.0 56.8 39.6 132.2
08/05 22:00 15.5 28 3.7 -2.9 15 17 1021.6 0 9.2 18.6 21.8 56.2 39.0 130.0
08/05 21:50 15.6 28 3.72 -2.8 15 15 1021.7 0 9.2 18.6 21.8 56.3 39.2 130.6
08/05 21:40 16 27 3.68 -3 15 17 1021.8 0 9.1 18.5 21.6 55.7 38.6 128.5
08/05 21:30 16.1 27 3.7 -2.9 17 22 1021.7 0 9.1 18.5 21.6 55.8 38.7 129.1
08/05 21:20 16 27 3.68 -3 17 19 1021.7 0 9.1 18.5 21.6 55.7 38.6 128.5
08/05 21:10 15.6 28 3.72 -2.8 15 17 1021.6 0 9.2 18.6 21.8 56.3 39.2 130.6
08/05 21:00 15 29 3.72 -2.9 17 19 1021.5 0 9.2 18.7 22.0 56.7 39.5 131.6
08/05 20:50 15 29 3.72 -2.9 17 17 1021.6 0 9.2 18.7 22.0 56.7 39.5 131.6
08/05 20:40 14.9 30 3.82 -2.5 15 15 1021.8 0 9.4 18.9 22.3 57.6 40.6 135.6
08/05 20:30 15.6 28 3.72 -2.8 15 17 1021.5 0 9.2 18.6 21.8 56.3 39.2 130.6
08/05 20:20 15.6 28 3.72 -2.8 13 15 1021.7 0 9.2 18.6 21.8 56.3 39.2 130.6
08/05 20:10 15.7 28 3.75 -2.7 15 17 1021.7 0 9.3 18.6 21.9 56.5 39.4 131.6
08/05 20:00 16.2 27 3.72 -2.8 13 17 1021.4 0 9.2 18.5 21.7 55.8 38.9 129.7
08/05 19:50 16.5 26 3.65 -3 13 13 1021.5 0 9.0 18.3 21.4 55.1 38.0 126.6
08/05 19:40 16.5 26 3.65 -3 13 15 1021.5 0 9.0 18.3 21.4 55.1 38.0 126.6
08/05 19:30 16.6 25 3.53 -3.5 13 15 1021.3 0 8.8 18.2 21.0 54.0 36.7 122.0
08/05 19:20 16.7 25 3.55 -3.4 15 15 1020.9 0 8.8 18.2 21.0 54.0 36.8 122.6
08/05 19:10 17 24 3.47 -3.7 13 15 1020.8 0 8.6 18.0 20.6 53.2 35.9 119.2
08/05 19:00 17.3 23 3.39 -4 13 17 1020.6 0 8.5 17.8 20.3 52.3 34.9 115.8
08/05 18:50 17.9 22 3.36 -4.1 13 15 1020.6 0 8.4 17.7 20.1 51.7 34.4 113.9
08/05 18:40 18 22 3.38 -4 13 15 1020.7 0 8.4 17.7 20.1 51.8 34.5 114.5
08/05 18:30 18.6 21 3.34 -4.1 15 17 1020.6 0 8.3 17.5 19.9 51.1 33.9 112.3
08/05 18:20 18.7 21 3.36 -4 15 17 1020.7 0 8.4 17.5 19.9 51.2 34.0 112.9
08/05 18:10 18.9 21 3.4 -3.9 17 20 1020.6 0 8.5 17.5 20.0 51.4 34.3 114.0
08/05 18:00 19.1 20 3.28 -4.4 20 26 1020.4 0 8.2 17.4 19.6 50.3 33.1 109.5
08/05 17:50 19.3 20 3.32 -4.2 19 22 1020.6 0 8.3 17.4 19.6 50.5 33.4 110.7
08/05 17:40 19.6 20 3.38 -3.9 19 22 1020.4 0 8.4 17.4 19.7 50.8 33.9 112.4
08/05 17:30 19.8 20 3.42 -3.8 22 28 1020.2 0 8.5 17.4 19.8 51.0 34.2 113.5
08/05 17:20 20 20 3.46 -3.6 15 19 1020 0 8.5 17.4 19.9 51.2 34.5 114.6
08/05 17:10 20.2 19 3.32 -4.1 17 19 1020 0 8.3 17.2 19.4 49.9 33.0 109.4
08/05 17:00 20.4 19 3.36 -4 20 26 1019.9 0 8.3 17.2 19.5 50.1 33.3 110.6
08/05 16:50 20.4 18 3.18 -4.7 24 30 1019.9 0 8.0 17.0 19.0 48.7 31.5 104.3
08/05 16:40 20.9 17 3.1 -5 26 30 1019.8 0 7.8 16.8 18.6 47.8 30.6 100.9
08/05 16:30 20.7 18 3.24 -4.4 24 35 1019.7 0 8.1 17.0 19.1 49.0 32.0 106.0
08/05 16:20 20.5 19 3.38 -3.9 22 28 1019.7 0 8.4 17.2 19.5 50.2 33.5 111.1
08/05 16:10 21.3 18 3.35 -4 24 28 1019.3 0 8.3 17.0 19.2 49.5 32.8 109.0
08/05 16:00 21.3 18 3.35 -4 26 33 1019.2 0 8.3 17.0 19.2 49.5 32.8 109.0
08/05 15:50 21 19 3.48 -3.5 26 28 1019.2 0 8.6 17.2 19.7 50.7 34.2 113.9
08/05 15:40 21 19 3.48 -3.5 24 28 1019.5 0 8.6 17.2 19.7 50.7 34.2 113.9
08/05 15:30 21 18 3.3 -4.2 24 35 1019.7 0 8.2 17.0 19.2 49.3 32.5 107.7
08/05 15:20 21.3 19 3.54 -3.2 20 22 1019.6 0 8.7 17.3 19.8 51.0 34.7 115.6
08/05 15:10 21.3 20 3.73 -2.5 22 26 1019.7 0 9.1 17.5 20.4 52.5 36.6 122.2
08/05 15:00 21.6 19 3.6 -3 26 35 1019.5 0 8.8 17.3 19.9 51.3 35.2 117.3
08/05 14:50 22 19 3.69 -2.7 24 28 1019.4 0 9.0 17.3 20.1 51.7 35.9 119.8
08/05 14:40 22.4 19 3.77 -2.3 24 28 1019.5 0 9.1 17.3 20.2 52.1 36.5 122.0
08/05 14:30 22.7 19 3.84 -2.1 22 33 1019.6 0 9.3 17.4 20.4 52.5 37.1 124.0
08/05 14:20 22.2 19 3.73 -2.5 24 28 1019.5 0 9.1 17.3 20.2 51.9 36.2 120.9
08/05 14:10 21.7 20 3.81 -2.2 19 24 1019.6 0 9.2 17.5 20.5 52.9 37.2 124.4
08/05 14:00 20.8 21 3.8 -2.3 20 32 1019.9 0 9.2 17.7 20.7 53.4 37.5 125.5
08/05 13:50 21.1 21 3.87 -2 22 28 1020 0 9.4 17.7 20.9 53.8 38.1 127.5
08/05 13:40 21.5 21 3.96 -1.7 22 26 1020.4 0 9.5 17.8 21.0 54.3 38.8 130.1
08/05 13:30 21.1 22 4.05 -1.4 26 35 1020.3 0 9.7 17.9 21.4 55.3 39.9 133.9
08/05 13:20 21.1 23 4.24 -0.8 24 26 1020.7 0 10.1 18.2 22.0 56.8 41.9 140.7
08/05 13:10 20.2 23 4.02 -1.6 26 28 1020.9 0 9.7 18.1 21.6 55.7 40.1 134.3
08/05 13:00 19 26 4.24 -0.9 24 30 1020.8 0 10.2 18.6 22.6 58.3 42.9 144.3
08/05 12:50 18.9 26 4.21 -1 30 32 1021.1 0 10.1 18.6 22.5 58.1 42.7 143.4
08/05 12:40 19.2 26 4.29 -0.7 30 33 1021.1 0 10.3 18.6 22.7 58.6 43.4 145.8
08/05 12:30 19.9 26 4.47 -0.1 28 35 1021.3 0 10.6 18.7 23.1 59.6 44.9 151.2
08/05 12:20 19.3 26 4.31 -0.7 26 28 1021.6 0 10.3 18.7 22.7 58.7 43.5 146.5
08/05 12:10 19.3 27 4.48 -0.1 22 28 1021.6 0 10.7 18.9 23.3 60.2 45.3 152.7

Last Refresh: 09-May-2026 04:20:47

Bureau of Meteorology